Time;durP1;ratioP1;P1;durP2;ratioP2;P2;SDS_P1;SDS_P2;PMS_P1;PMS_P2;Temp;Humidity;BMP_temperature;BMP_pressure;BME280_temperature;BME280_humidity;BME280_pressure;Samples;Min_cycle;Max_cycle;Signal;HPM_P1;HPM_P2
2023/02/04 00:01:21;;;;;;;8.23;4.65;;;8.20;99.90;;;;;;5059819;28;20051;-46
2023/02/04 00:03:46;;;;;;;7.55;5.35;;;8.10;99.90;;;;;;5049599;28;20052;-45
2023/02/04 00:06:12;;;;;;;7.65;5.00;;;8.20;99.90;;;;;;5081016;28;20044;-45
2023/02/04 00:08:38;;;;;;;8.95;5.30;;;8.00;99.90;;;;;;5040365;28;20441;-46
2023/02/04 00:11:04;;;;;;;6.35;4.18;;;8.10;99.90;;;;;;5083851;28;20489;-46
2023/02/04 00:13:30;;;;;;;6.95;4.55;;;8.00;99.90;;;;;;5051582;28;20037;-45
2023/02/04 00:15:55;;;;;;;6.53;3.47;;;8.10;99.90;;;;;;5052124;28;20113;-45
2023/02/04 00:18:21;;;;;;;5.10;3.17;;;8.10;99.90;;;;;;5053033;28;20032;-45
2023/02/04 00:20:47;;;;;;;5.18;2.47;;;8.20;99.90;;;;;;5052359;28;20067;-45
2023/02/04 00:23:12;;;;;;;5.82;3.78;;;8.20;99.90;;;;;;5053195;28;20032;-45
2023/02/04 00:25:38;;;;;;;4.40;2.15;;;;;;;;;;5049991;28;20044;-45
2023/02/04 00:28:05;;;;;;;3.90;2.83;;;8.10;99.90;;;;;;5082259;28;20444;-45
2023/02/04 00:30:31;;;;;;;3.92;2.00;;;8.10;99.90;;;;;;5052506;28;20025;-46
2023/02/04 00:32:57;;;;;;;4.25;2.45;;;8.10;99.90;;;;;;5052358;28;20029;-45
2023/02/04 00:35:23;;;;;;;5.22;3.22;;;8.10;99.90;;;;;;5052226;28;20487;-45
2023/02/04 00:37:50;;;;;;;3.83;2.80;;;8.20;99.90;;;;;;5025377;28;20048;-45
2023/02/04 00:40:16;;;;;;;3.72;2.15;;;8.20;99.90;;;;;;5052080;28;20423;-45
2023/02/04 00:42:42;;;;;;;3.25;1.90;;;8.20;99.90;;;;;;5051968;28;20028;-45
2023/02/04 00:45:09;;;;;;;3.17;1.88;;;8.10;99.90;;;;;;5052912;28;20025;-45
2023/02/04 00:47:35;;;;;;;3.50;1.42;;;8.10;99.90;;;;;;5067289;28;20047;-46
2023/02/04 00:50:00;;;;;;;3.45;1.98;;;8.00;99.90;;;;;;5052832;28;20025;-44
2023/02/04 00:52:26;;;;;;;4.35;2.08;;;7.90;99.90;;;;;;5084140;28;20131;-45
2023/02/04 00:54:52;;;;;;;2.63;1.92;;;8.00;99.90;;;;;;5052800;28;20037;-45
2023/02/04 00:57:18;;;;;;;3.53;1.50;;;8.00;99.90;;;;;;5052510;28;20099;-45
2023/02/04 00:59:44;;;;;;;1.85;1.27;;;8.00;99.90;;;;;;5052608;28;20032;-45
2023/02/04 01:02:09;;;;;;;1.95;1.48;;;7.90;99.90;;;;;;5052683;28;20035;-45
2023/02/04 01:04:35;;;;;;;4.70;1.55;;;7.90;99.90;;;;;;5052740;28;20032;-45
2023/02/04 01:07:01;;;;;;;2.28;1.20;;;7.90;99.90;;;;;;5052547;28;20537;-45
2023/02/04 01:09:26;;;;;;;3.28;1.73;;;7.80;99.90;;;;;;5052635;28;20025;-45
2023/02/04 01:11:52;;;;;;;4.00;1.50;;;7.80;99.90;;;;;;5052621;28;20036;-45
2023/02/04 01:14:18;;;;;;;2.85;1.55;;;7.80;99.90;;;;;;5052544;28;20071;-45
2023/02/04 01:16:44;;;;;;;3.15;1.60;;;8.00;99.90;;;;;;5052519;28;20025;-45
2023/02/04 01:19:10;;;;;;;2.13;1.33;;;7.70;99.90;;;;;;5052276;28;20103;-45
2023/02/04 01:21:36;;;;;;;3.03;1.63;;;7.70;99.90;;;;;;5052384;28;20491;-45
2023/02/04 01:24:02;;;;;;;5.43;1.77;;;7.70;99.90;;;;;;5052989;28;20032;-45
2023/02/04 01:26:28;;;;;;;3.42;1.77;;;7.70;99.90;;;;;;5056157;28;20024;-45
2023/02/04 01:28:54;;;;;;;3.45;1.45;;;7.70;99.90;;;;;;5056217;28;20025;-45
2023/02/04 01:31:20;;;;;;;2.60;1.20;;;7.60;99.90;;;;;;5037549;28;20059;-45
2023/02/04 01:33:46;;;;;;;4.32;1.38;;;7.60;99.90;;;;;;5087660;28;20044;-45
2023/02/04 01:36:12;;;;;;;2.55;1.38;;;7.60;99.90;;;;;;5087790;28;20110;-45
2023/02/04 01:38:37;;;;;;;3.03;1.10;;;7.60;99.90;;;;;;5060216;28;20452;-46
2023/02/04 01:41:04;;;;;;;4.70;1.58;;;7.60;99.90;;;;;;5041948;28;20083;-47
2023/02/04 01:43:31;;;;;;;4.07;1.40;;;7.60;99.90;;;;;;5060296;28;20036;-45
2023/02/04 01:45:57;;;;;;;2.10;0.98;;;7.60;99.90;;;;;;5060421;28;20104;-51
2023/02/04 01:48:23;;;;;;;3.05;1.70;;;7.60;99.90;;;;;;5060961;28;20496;-46
2023/02/04 01:51:10;;;;;;;3.05;1.73;;;7.60;99.90;;;;;;5059324;28;20055;-44
2023/02/04 01:53:37;;;;;;;4.00;1.92;;;7.60;99.90;;;;;;5055760;28;20032;-44
2023/02/04 01:56:28;;;;;;;3.85;1.80;;;7.60;99.90;;;;;;5036803;28;20049;-45
2023/02/04 01:58:56;;;;;;;4.47;1.92;;;7.60;99.90;;;;;;5053213;28;20054;-45
2023/02/04 02:01:42;;;;;;;4.10;2.30;;;7.60;99.90;;;;;;5036845;28;20037;-45
2023/02/04 02:04:10;;;;;;;4.50;2.33;;;7.90;99.90;;;;;;5053165;28;20044;-45
2023/02/04 02:06:38;;;;;;;2.72;2.15;;;7.50;99.90;;;;;;5053264;28;20033;-44
2023/02/04 02:09:04;;;;;;;2.90;2.00;;;7.50;99.90;;;;;;5053048;28;20036;-44
2023/02/04 02:11:30;;;;;;;4.47;2.35;;;7.50;99.90;;;;;;5053345;28;20025;-45
2023/02/04 02:13:56;;;;;;;4.00;2.63;;;7.50;99.90;;;;;;5053135;28;20056;-45
2023/02/04 02:16:22;;;;;;;4.32;2.20;;;7.50;99.90;;;;;;5053114;28;20486;-45
2023/02/04 02:18:49;;;;;;;4.22;2.58;;;7.50;99.90;;;;;;5053256;28;20124;-44
2023/02/04 02:21:18;;;;;;;3.10;2.25;;;7.40;99.90;;;;;;5053109;28;20432;-45
2023/02/04 02:23:51;;;;;;;3.65;2.53;;;7.40;99.90;;;;;;5053124;28;20114;-44
2023/02/04 02:26:18;;;;;;;4.78;2.40;;;7.50;99.90;;;;;;5053074;28;20524;-45
2023/02/04 02:28:46;;;;;;;4.20;2.40;;;7.50;99.90;;;;;;5052944;28;20119;-45
2023/02/04 02:31:13;;;;;;;4.50;2.45;;;7.50;99.90;;;;;;5052761;28;20186;-45
2023/02/04 02:33:40;;;;;;;3.90;2.15;;;7.50;99.90;;;;;;5052571;28;20093;-45
2023/02/04 02:36:06;;;;;;;4.82;2.25;;;7.50;99.90;;;;;;5044521;28;20037;-45
2023/02/04 02:38:32;;;;;;;3.83;2.20;;;7.50;99.90;;;;;;5069577;28;20423;-45
2023/02/04 02:40:58;;;;;;;4.88;2.00;;;7.40;99.90;;;;;;5054710;28;20025;-44
2023/02/04 02:43:26;;;;;;;4.20;2.20;;;7.50;99.90;;;;;;5054827;28;20362;-44
2023/02/04 02:45:54;;;;;;;2.53;1.60;;;7.30;99.90;;;;;;5054869;28;20095;-44
2023/02/04 02:48:19;;;;;;;3.17;1.90;;;7.20;99.90;;;;;;5055274;28;20025;-45
2023/02/04 02:50:46;;;;;;;3.05;1.90;;;7.20;99.90;;;;;;5086266;28;20099;-45
2023/02/04 02:53:13;;;;;;;3.13;1.65;;;7.40;99.90;;;;;;5054709;28;20070;-45
2023/02/04 02:55:40;;;;;;;1.98;1.55;;;7.20;99.90;;;;;;5069427;28;20083;-45
2023/02/04 02:58:16;;;;;;;3.13;2.03;;;7.20;99.90;;;;;;5054599;28;20035;-45
2023/02/04 03:00:43;;;;;;;3.47;1.77;;;7.20;99.90;;;;;;5054362;28;20083;-45
2023/02/04 03:03:23;;;;;;;3.17;1.85;;;7.20;99.90;;;;;;5054857;28;20124;-46
2023/02/04 03:05:53;;;;;;;3.33;1.90;;;7.30;99.90;;;;;;5054493;28;20036;-45
2023/02/04 03:08:19;;;;;;;3.53;1.77;;;7.30;99.90;;;;;;5054282;28;20033;-45
2023/02/04 03:10:46;;;;;;;4.35;1.88;;;7.30;99.90;;;;;;5054408;28;20083;-45
2023/02/04 03:13:13;;;;;;;3.28;2.20;;;7.30;99.90;;;;;;5054227;28;20405;-45
2023/02/04 03:15:41;;;;;;;3.78;2.10;;;7.30;99.90;;;;;;5054161;28;20025;-45
2023/02/04 03:18:07;;;;;;;2.78;1.45;;;7.30;99.90;;;;;;5054428;28;20036;-45
2023/02/04 03:20:34;;;;;;;3.92;1.90;;;7.20;99.90;;;;;;5054399;28;20116;-45
2023/02/04 03:23:00;;;;;;;2.40;1.35;;;7.30;99.90;;;;;;5054269;28;20025;-45
2023/02/04 03:25:27;;;;;;;3.47;1.77;;;7.30;99.90;;;;;;5051980;28;20040;-44
2023/02/04 03:27:54;;;;;;;5.00;2.00;;;7.40;99.90;;;;;;5053867;28;20419;-45
2023/02/04 03:30:21;;;;;;;3.55;1.60;;;7.20;99.90;;;;;;5068535;28;20029;-45
2023/02/04 03:32:47;;;;;;;3.33;1.95;;;7.30;99.90;;;;;;5054188;28;20029;-45
2023/02/04 03:35:13;;;;;;;2.67;1.55;;;7.30;99.90;;;;;;5035314;28;20562;-45
2023/02/04 03:37:39;;;;;;;3.78;1.90;;;7.30;99.90;;;;;;5084968;28;20033;-45
2023/02/04 03:40:05;;;;;;;3.03;1.30;;;7.40;99.90;;;;;;5054491;28;20031;-44
2023/02/04 03:42:31;;;;;;;3.10;1.60;;;7.40;99.90;;;;;;5068465;28;20136;-44
2023/02/04 03:44:57;;;;;;;4.68;1.70;;;7.40;99.90;;;;;;5084586;28;20532;-44
2023/02/04 03:47:22;;;;;;;4.80;1.67;;;7.50;99.90;;;;;;5052817;28;20031;-45
2023/02/04 03:49:48;;;;;;;5.25;1.80;;;7.50;99.90;;;;;;5053518;28;20473;-45
2023/02/04 03:52:14;;;;;;;2.67;1.70;;;7.50;99.90;;;;;;5035068;28;20230;-45
2023/02/04 03:54:39;;;;;;;5.35;2.30;;;7.60;99.90;;;;;;5034840;28;20076;-44
2023/02/04 03:57:05;;;;;;;3.58;1.50;;;7.50;99.90;;;;;;5053654;28;20059;-44
2023/02/04 03:59:32;;;;;;;3.45;2.20;;;7.50;99.90;;;;;;5001874;28;20060;-44
2023/02/04 04:01:58;;;;;;;4.95;1.70;;;7.50;99.90;;;;;;5034760;28;20037;-44
2023/02/04 04:04:24;;;;;;;5.75;1.92;;;7.60;99.90;;;;;;5053430;28;20025;-45
2023/02/04 04:06:50;;;;;;;2.83;1.75;;;7.60;99.90;;;;;;5053386;28;20060;-44
2023/02/04 04:09:15;;;;;;;3.75;1.90;;;7.60;99.90;;;;;;5053474;28;20053;-45
2023/02/04 04:11:41;;;;;;;3.95;1.55;;;7.60;99.90;;;;;;5053188;28;20032;-43
2023/02/04 04:14:07;;;;;;;2.00;1.20;;;7.60;99.90;;;;;;5053362;28;20120;-44
2023/02/04 04:16:33;;;;;;;3.38;1.30;;;7.60;99.90;;;;;;5052991;28;20033;-44
2023/02/04 04:18:58;;;;;;;2.60;1.50;;;7.70;99.90;;;;;;5051484;28;20061;-44
2023/02/04 04:21:24;;;;;;;6.22;1.85;;;7.70;99.90;;;;;;5034671;28;20044;-44
2023/02/04 04:23:50;;;;;;;4.15;1.83;;;7.70;99.90;;;;;;5053095;28;20036;-44
2023/02/04 04:26:16;;;;;;;5.00;1.58;;;7.80;99.90;;;;;;5053087;28;20074;-44
2023/02/04 04:28:42;;;;;;;4.57;1.70;;;;;;;;;;5034278;28;20040;-44
2023/02/04 04:31:08;;;;;;;4.25;1.73;;;;;;;;;;5034384;28;20267;-44
2023/02/04 04:33:34;;;;;;;5.57;1.52;;;;;;;;;;5034280;28;20033;-44
2023/02/04 04:36:00;;;;;;;5.75;2.20;;;8.00;99.90;;;;;;5052823;28;20492;-43
2023/02/04 04:38:25;;;;;;;2.53;1.40;;;8.10;99.90;;;;;;5034471;28;20037;-44
2023/02/04 04:40:52;;;;;;;3.72;1.50;;;7.90;99.90;;;;;;5034297;28;20037;-44
2023/02/04 04:43:18;;;;;;;3.75;1.13;;;7.70;99.90;;;;;;5052894;28;20040;-44
2023/02/04 04:45:44;;;;;;;4.63;2.30;;;7.60;99.90;;;;;;5052736;28;20033;-44
2023/02/04 04:48:10;;;;;;;3.72;1.35;;;;;;;;;;5054230;28;20108;-44
2023/02/04 04:50:35;;;;;;;4.20;2.05;;;7.70;99.90;;;;;;5034481;28;20106;-44
2023/02/04 04:53:01;;;;;;;3.65;1.23;;;7.70;99.90;;;;;;5034129;28;20446;-44
2023/02/04 04:55:27;;;;;;;4.68;1.67;;;7.70;99.90;;;;;;5052536;28;20443;-44
2023/02/04 04:57:53;;;;;;;4.63;2.00;;;;;;;;;;5034046;28;20045;-44
2023/02/04 05:00:20;;;;;;;2.33;1.45;;;;;;;;;;5038250;28;20125;-44
2023/02/04 05:02:46;;;;;;;4.82;1.80;;;;;;;;;;5021190;28;20041;-44
2023/02/04 05:05:12;;;;;;;4.72;2.20;;;;;;;;;;5057033;28;20051;-44
2023/02/04 05:07:38;;;;;;;4.70;2.28;;;8.00;99.90;;;;;;5059331;28;20060;-43
2023/02/04 05:10:05;;;;;;;5.30;1.92;;;8.00;99.90;;;;;;5054170;28;20072;-44
2023/02/04 05:12:31;;;;;;;6.05;2.42;;;7.90;99.90;;;;;;5055215;28;20032;-44
2023/02/04 05:14:57;;;;;;;6.10;2.67;;;8.10;99.90;;;;;;5056640;28;20139;-44
2023/02/04 05:17:23;;;;;;;2.67;1.30;;;8.00;99.90;;;;;;5056335;28;20060;-44
2023/02/04 05:19:48;;;;;;;3.40;1.15;;;7.80;99.90;;;;;;5056318;28;20037;-44
2023/02/04 05:22:14;;;;;;;4.72;1.17;;;7.80;99.90;;;;;;5055821;28;20033;-43
2023/02/04 05:24:40;;;;;;;7.97;1.90;;;;;;;;;;5037770;28;20124;-44
2023/02/04 05:27:06;;;;;;;4.38;1.17;;;;;;;;;;5056164;28;20033;-44
2023/02/04 05:29:32;;;;;;;7.28;1.70;;;7.90;99.90;;;;;;5056302;28;20048;-43
2023/02/04 05:31:58;;;;;;;2.03;1.23;;;;;;;;;;5056501;28;20033;-44
2023/02/04 05:34:24;;;;;;;2.53;1.23;;;;;;;;;;5056262;28;20385;-43
2023/02/04 05:36:50;;;;;;;6.07;1.40;;;;;;;;;;5055883;28;20029;-45
2023/02/04 05:39:17;;;;;;;3.35;1.42;;;;;;;;;;5037648;28;20045;-44
2023/02/04 05:41:43;;;;;;;3.53;1.50;;;;;;;;;;5056038;28;20048;-44
2023/02/04 05:44:09;;;;;;;4.95;1.60;;;;;;;;;;5037357;28;20132;-44
2023/02/04 05:46:36;;;;;;;5.03;1.75;;;;;;;;;;5056048;28;20044;-44
2023/02/04 05:49:01;;;;;;;4.05;1.52;;;7.40;99.90;;;;;;5055888;28;20091;-43
2023/02/04 05:51:27;;;;;;;4.90;1.85;;;7.60;99.90;;;;;;5055871;28;20040;-44
2023/02/04 05:53:52;;;;;;;2.22;1.55;;;7.10;99.90;;;;;;5055602;28;20061;-44
2023/02/04 05:56:18;;;;;;;3.30;1.40;;;7.30;99.90;;;;;;5055742;28;20480;-44
2023/02/04 05:58:44;;;;;;;4.72;1.30;;;7.20;99.90;;;;;;5055581;28;20492;-44
2023/02/04 06:01:10;;;;;;;4.43;1.35;;;7.30;99.90;;;;;;5056281;28;20039;-43
2023/02/04 06:03:35;;;;;;;3.00;1.52;;;7.20;99.90;;;;;;5063235;28;20025;-44
2023/02/04 06:06:01;;;;;;;4.32;1.05;;;7.30;99.90;;;;;;5041505;28;20388;-44
2023/02/04 06:08:27;;;;;;;5.57;1.58;;;7.20;99.90;;;;;;5060389;28;20036;-44
2023/02/04 06:10:52;;;;;;;6.50;1.35;;;7.30;99.90;;;;;;5057080;28;20374;-44
2023/02/04 06:13:18;;;;;;;3.00;1.05;;;7.20;99.90;;;;;;5055322;28;20539;-44
2023/02/04 06:15:44;;;;;;;2.90;1.30;;;7.20;99.90;;;;;;5054037;28;20377;-44
2023/02/04 06:18:10;;;;;;;4.07;1.65;;;7.10;99.90;;;;;;5055160;28;20039;-43
2023/02/04 06:20:35;;;;;;;1.33;0.80;;;7.20;99.90;;;;;;5054532;28;20074;-44
2023/02/04 06:23:01;;;;;;;3.13;1.27;;;7.10;99.90;;;;;;5055429;28;20036;-44
2023/02/04 06:25:27;;;;;;;4.93;1.33;;;7.20;99.90;;;;;;5055135;28;20037;-44
2023/02/04 06:27:53;;;;;;;4.85;1.35;;;7.20;99.90;;;;;;5055121;28;20116;-43
2023/02/04 06:30:18;;;;;;;2.47;1.40;;;6.80;99.90;;;;;;5053927;28;20036;-44
2023/02/04 06:32:44;;;;;;;3.25;1.50;;;;;;;;;;5054958;28;20116;-44
2023/02/04 06:35:11;;;;;;;2.58;1.02;;;7.10;99.90;;;;;;5054896;28;20036;-44
2023/02/04 06:37:38;;;;;;;4.72;1.42;;;7.10;99.90;;;;;;5054980;28;20124;-45
2023/02/04 06:40:05;;;;;;;2.28;1.30;;;7.20;99.90;;;;;;5054578;28;20040;-43
2023/02/04 06:42:30;;;;;;;2.33;1.13;;;7.10;99.90;;;;;;5069257;28;20099;-44
2023/02/04 06:44:56;;;;;;;3.83;1.55;;;7.30;99.90;;;;;;5086877;28;20384;-43
2023/02/04 06:47:22;;;;;;;2.75;0.70;;;7.20;99.90;;;;;;5054910;28;20525;-44
2023/02/04 06:49:47;;;;;;;7.90;4.80;;;6.90;99.90;;;;;;5053662;28;20436;-44
2023/02/04 06:52:13;;;;;;;4.00;2.20;;;7.10;99.90;;;;;;5054227;28;20508;-44
2023/02/04 06:54:39;;;;;;;3.47;2.13;;;6.90;99.90;;;;;;5051830;28;20393;-44
2023/02/04 06:57:07;;;;;;;4.25;2.08;;;7.30;99.90;;;;;;5052136;28;20508;-44
2023/02/04 06:59:34;;;;;;;1.77;1.30;;;7.10;99.90;;;;;;5053781;28;20104;-44
2023/02/04 07:02:00;;;;;;;3.88;2.03;;;7.00;99.90;;;;;;5053904;28;20033;-44
2023/02/04 07:04:26;;;;;;;6.40;1.80;;;7.10;99.90;;;;;;5053941;28;20415;-44
2023/02/04 07:06:52;;;;;;;3.20;1.08;;;7.10;99.90;;;;;;5053982;28;20033;-45
2023/02/04 07:09:18;;;;;;;0.88;0.80;;;7.00;99.90;;;;;;5066170;28;20402;-43
2023/02/04 07:11:44;;;;;;;4.18;1.90;;;7.10;99.90;;;;;;5053679;28;20517;-44
2023/02/04 07:14:09;;;;;;;2.38;1.55;;;7.10;99.90;;;;;;5051664;28;20492;-44
2023/02/04 07:16:36;;;;;;;2.35;1.25;;;7.00;99.90;;;;;;5034913;28;20036;-43
2023/02/04 07:19:02;;;;;;;2.63;1.58;;;7.10;99.90;;;;;;5053717;28;20461;-44
2023/02/04 07:21:28;;;;;;;5.53;1.92;;;7.10;99.90;;;;;;5053466;28;20037;-44
2023/02/04 07:23:54;;;;;;;2.17;1.45;;;7.20;99.90;;;;;;5053500;28;20439;-44
2023/02/04 07:26:19;;;;;;;2.67;1.50;;;7.20;99.90;;;;;;5053763;28;20033;-44
2023/02/04 07:28:45;;;;;;;5.90;2.78;;;7.60;99.90;;;;;;5051882;28;20476;-45
2023/02/04 07:31:12;;;;;;;3.28;1.60;;;7.40;99.90;;;;;;5053035;28;20246;-44
2023/02/04 07:33:37;;;;;;;3.40;2.28;;;7.50;99.90;;;;;;5052742;28;20036;-45
2023/02/04 07:36:03;;;;;;;3.95;2.10;;;7.50;99.90;;;;;;5053400;28;20025;-44
2023/02/04 07:38:29;;;;;;;10.50;8.38;;;7.60;99.90;;;;;;5068398;28;20566;-44
2023/02/04 07:40:55;;;;;;;6.38;4.93;;;7.60;99.90;;;;;;5053855;28;20115;-44
2023/02/04 07:43:20;;;;;;;3.53;1.92;;;7.60;99.90;;;;;;5053554;28;20045;-43
2023/02/04 07:45:46;;;;;;;3.53;1.50;;;7.70;99.90;;;;;;5053735;28;20036;-44
2023/02/04 07:48:12;;;;;;;4.88;2.10;;;;;;;;;;5053833;28;20029;-44
2023/02/04 07:50:38;;;;;;;6.55;2.95;;;7.70;99.90;;;;;;5085607;28;20037;-45
2023/02/04 07:53:04;;;;;;;4.00;2.10;;;7.80;99.90;;;;;;5053708;28;20060;-44
2023/02/04 07:55:29;;;;;;;3.33;1.30;;;7.90;99.90;;;;;;5053151;28;20037;-44
2023/02/04 07:57:55;;;;;;;6.10;4.43;;;7.90;99.90;;;;;;5018340;28;20385;-44
2023/02/04 08:00:21;;;;;;;4.13;2.25;;;7.90;99.90;;;;;;5053989;28;20064;-44
2023/02/04 08:02:47;;;;;;;7.22;3.90;;;7.80;99.90;;;;;;5053584;28;20376;-44
2023/02/04 08:05:13;;;;;;;10.68;5.70;;;7.90;99.90;;;;;;5051547;28;20047;-47
2023/02/04 08:07:39;;;;;;;9.45;7.07;;;8.40;99.90;;;;;;5053074;28;20037;-45
2023/02/04 08:10:06;;;;;;;8.95;3.13;;;10.70;99.90;;;;;;5034891;28;20044;-45
2023/02/04 08:12:32;;;;;;;6.30;2.70;;;;;;;;;;5067502;28;20055;-46
2023/02/04 08:14:59;;;;;;;4.93;4.13;;;10.10;99.90;;;;;;5053267;28;20048;-46
2023/02/04 08:17:26;;;;;;;5.80;4.45;;;10.20;99.90;;;;;;5067727;28;20045;-46
2023/02/04 08:19:51;;;;;;;5.25;3.85;;;10.10;99.90;;;;;;5053201;28;20036;-46
2023/02/04 08:22:17;;;;;;;5.45;3.10;;;10.90;99.90;;;;;;5053115;28;20032;-45
2023/02/04 08:24:43;;;;;;;5.78;2.70;;;11.00;99.90;;;;;;5053249;28;20120;-46
2023/02/04 08:27:09;;;;;;;5.43;2.90;;;10.50;99.90;;;;;;5053563;28;20043;-47
2023/02/04 08:29:36;;;;;;;7.38;4.18;;;10.20;99.90;;;;;;5052001;28;20400;-47
2023/02/04 08:32:02;;;;;;;18.25;11.80;;;10.20;99.90;;;;;;5052613;28;20033;-46
2023/02/04 08:34:28;;;;;;;6.85;4.07;;;9.80;99.90;;;;;;5052408;28;20493;-46
2023/02/04 08:36:54;;;;;;;4.63;2.50;;;9.60;99.90;;;;;;5053107;28;20028;-45
2023/02/04 08:39:20;;;;;;;8.18;7.38;;;9.30;99.90;;;;;;5053245;28;20715;-46
2023/02/04 08:41:47;;;;;;;4.57;2.15;;;11.00;99.90;;;;;;5053006;28;20389;-46
2023/02/04 08:44:14;;;;;;;6.55;3.85;;;10.90;99.90;;;;;;5051302;28;20120;-46
2023/02/04 08:46:39;;;;;;;13.50;6.82;;;11.30;99.90;;;;;;5052173;28;20033;-46
2023/02/04 08:49:05;;;;;;;21.52;10.00;;;11.40;99.90;;;;;;5052274;28;20039;-46
2023/02/04 08:51:31;;;;;;;19.83;9.02;;;11.30;99.90;;;;;;5052910;28;20461;-46
2023/02/04 08:53:57;;;;;;;5.82;2.90;;;10.60;99.90;;;;;;5052530;28;20048;-45
2023/02/04 08:56:23;;;;;;;6.10;3.17;;;10.20;99.90;;;;;;5030431;28;20049;-45
2023/02/04 08:58:48;;;;;;;3.88;1.77;;;9.70;99.90;;;;;;5032846;28;20094;-46
2023/02/04 09:01:15;;;;;;;2.00;0.93;;;;;;;;;;5032995;28;20044;-46
2023/02/04 09:03:40;;;;;;;1.90;1.15;;;8.00;99.90;;;;;;5047706;28;20038;-46
2023/02/04 09:06:07;;;;;;;7.70;4.75;;;7.50;99.90;;;;;;5032989;28;20040;-45
2023/02/04 09:08:33;;;;;;;14.63;7.57;;;7.30;99.90;;;;;;5033026;28;20400;-46
2023/02/04 09:10:59;;;;;;;6.65;4.50;;;7.20;99.90;;;;;;5032875;28;20121;-46
2023/02/04 09:13:25;;;;;;;7.35;3.65;;;7.50;99.90;;;;;;5032640;28;20382;-45
2023/02/04 09:15:51;;;;;;;16.35;8.38;;;;;;;;;;5032461;28;20084;-45
2023/02/04 09:18:20;;;;;;;24.05;13.55;;;7.50;99.90;;;;;;5032644;28;20045;-46
2023/02/04 09:20:47;;;;;;;8.55;4.13;;;7.40;99.90;;;;;;5032539;28;20042;-46
2023/02/04 09:23:13;;;;;;;10.32;5.03;;;7.30;99.90;;;;;;5032648;28;20116;-46
2023/02/04 09:25:40;;;;;;;6.30;4.05;;;7.20;99.90;;;;;;5031727;28;20026;-46
2023/02/04 09:28:08;;;;;;;20.92;12.65;;;7.10;99.90;;;;;;5046579;28;20069;-45
2023/02/04 09:30:35;;;;;;;12.23;6.43;;;7.10;99.90;;;;;;5031578;28;20032;-46
2023/02/04 09:33:00;;;;;;;17.90;9.45;;;7.20;99.90;;;;;;5031442;28;20064;-46
2023/02/04 09:35:26;;;;;;;12.35;7.43;;;7.10;99.90;;;;;;5032098;28;20061;-45
2023/02/04 09:37:52;;;;;;;14.02;7.25;;;7.00;99.90;;;;;;5031740;28;20540;-46
2023/02/04 09:40:19;;;;;;;3.03;1.83;;;7.50;99.90;;;;;;5031397;28;20034;-49
2023/02/04 09:42:50;;;;;;;5.90;3.88;;;7.30;99.90;;;;;;5031622;28;20394;-46
2023/02/04 09:45:26;;;;;;;3.58;2.47;;;7.60;99.90;;;;;;5032101;28;20037;-45
2023/02/04 09:47:55;;;;;;;5.35;4.32;;;8.20;99.90;;;;;;5035230;28;20041;-45
2023/02/04 09:50:23;;;;;;;7.32;4.78;;;8.50;99.90;;;;;;5035125;28;20038;-46
2023/02/04 09:52:51;;;;;;;9.40;3.42;;;7.90;99.90;;;;;;5034568;28;20790;-46
2023/02/04 09:55:19;;;;;;;5.63;3.13;;;7.90;99.90;;;;;;5034823;28;20065;-45
2023/02/04 09:57:46;;;;;;;17.25;10.77;;;8.00;99.90;;;;;;5052738;28;20049;-45
2023/02/04 10:00:17;;;;;;;5.38;3.08;;;7.90;99.90;;;;;;5069280;28;20128;-45
2023/02/04 10:02:43;;;;;;;5.22;2.53;;;;;;;;;;5052551;28;20373;-45
2023/02/04 10:05:23;;;;;;;4.75;3.92;;;8.00;99.90;;;;;;5054590;28;20032;-45
2023/02/04 10:07:49;;;;;;;2.25;2.00;;;7.80;99.90;;;;;;5054728;28;20064;-45
2023/02/04 10:10:17;;;;;;;2.00;1.35;;;7.70;99.90;;;;;;5085813;28;20052;-46
2023/02/04 10:12:44;;;;;;;1.52;0.90;;;7.30;99.90;;;;;;5047348;28;20116;-45
2023/02/04 10:15:14;;;;;;;1.73;1.05;;;7.20;99.90;;;;;;5053993;28;20041;-46
2023/02/04 10:17:41;;;;;;;1.73;1.02;;;7.40;99.90;;;;;;5065372;28;20039;-46
2023/02/04 10:20:19;;;;;;;1.60;1.15;;;6.70;99.90;;;;;;4992532;28;20571;-44
2023/02/04 10:22:50;;;;;;;2.08;0.90;;;7.00;99.90;;;;;;5054552;28;20044;-44
2023/02/04 10:25:19;;;;;;;0.97;0.87;;;7.00;99.90;;;;;;5051415;28;20477;-44
2023/02/04 10:27:56;;;;;;;1.10;0.70;;;6.70;99.90;;;;;;5051876;28;20079;-44
2023/02/04 10:30:29;;;;;;;2.15;1.08;;;7.10;99.90;;;;;;5053334;28;21836;-43
2023/02/04 10:32:55;;;;;;;1.77;1.17;;;;;;;;;;5051977;28;20083;-43
2023/02/04 10:35:22;;;;;;;1.10;0.98;;;6.70;99.90;;;;;;5052397;28;20072;-44
2023/02/04 10:38:01;;;;;;;1.17;0.90;;;6.80;99.90;;;;;;5053585;28;20028;-43
2023/02/04 10:40:34;;;;;;;2.22;0.98;;;6.40;99.90;;;;;;5053384;28;20033;-43
2023/02/04 10:43:30;;;;;;;3.40;1.42;;;6.40;99.90;;;;;;5053765;28;20039;-43
2023/02/04 10:46:01;;;;;;;2.58;1.58;;;6.30;99.90;;;;;;5034427;28;20044;-44
2023/02/04 10:48:29;;;;;;;2.67;1.25;;;6.40;99.90;;;;;;5052042;28;20484;-43
2023/02/04 10:50:56;;;;;;;1.23;1.05;;;6.30;99.90;;;;;;5053822;28;20065;-44
2023/02/04 10:56:21;;;;;;;3.15;1.48;;;6.10;99.90;;;;;;5065398;28;20511;-45
2023/02/04 10:58:47;;;;;;;1.40;1.17;;;6.00;99.90;;;;;;5025484;28;20041;-45
2023/02/04 11:01:15;;;;;;;2.15;1.35;;;5.90;99.90;;;;;;5053473;28;20111;-45
2023/02/04 11:03:42;;;;;;;4.15;2.00;;;5.80;99.90;;;;;;5018147;28;20366;-45
2023/02/04 11:06:13;;;;;;;2.35;1.50;;;;;;;;;;5053803;28;20107;-45
2023/02/04 11:08:39;;;;;;;2.13;1.55;;;5.50;99.90;;;;;;5052860;28;20025;-45
2023/02/04 11:11:15;;;;;;;4.63;1.88;;;5.30;99.90;;;;;;5052520;28;20437;-45
2023/02/04 11:13:45;;;;;;;16.75;6.38;;;5.50;99.90;;;;;;5049516;28;20041;-46
2023/02/04 11:16:16;;;;;;;18.33;6.57;;;5.40;99.90;;;;;;5034579;28;20412;-46
2023/02/04 11:18:57;;;;;;;7.13;4.05;;;5.10;99.90;;;;;;5053300;28;20063;-46
2023/02/04 11:21:31;;;;;;;9.95;3.65;;;5.10;99.90;;;;;;5010620;28;20037;-46
2023/02/04 11:24:15;;;;;;;16.50;7.20;;;6.60;99.90;;;;;;4960932;28;20481;-46
2023/02/04 11:26:41;;;;;;;6.97;2.75;;;;;;;;;;5010373;28;20061;-46
2023/02/04 11:29:29;;;;;;;4.53;2.85;;;4.90;99.90;;;;;;5010446;28;20053;-45
2023/02/04 11:32:03;;;;;;;8.38;5.40;;;4.90;99.90;;;;;;5005681;28;20029;-46
2023/02/04 11:34:30;;;;;;;15.13;7.40;;;5.40;99.90;;;;;;4994349;28;20054;-46
2023/02/04 11:36:57;;;;;;;9.82;4.47;;;;;;;;;;4994109;28;20040;-46
2023/02/04 11:39:28;;;;;;;6.68;3.78;;;3.20;99.90;;;;;;5010868;28;20042;-46
2023/02/04 11:41:54;;;;;;;8.97;5.90;;;5.40;99.90;;;;;;5011363;28;20163;-46
2023/02/04 11:44:21;;;;;;;9.13;5.47;;;5.40;99.90;;;;;;5010000;28;20034;-46
2023/02/04 11:46:54;;;;;;;16.60;7.45;;;5.60;99.90;;;;;;5011459;28;20112;-45
2023/02/04 11:49:22;;;;;;;37.80;17.08;;;5.50;99.90;;;;;;5011173;28;20029;-45
2023/02/04 11:51:49;;;;;;;22.77;9.95;;;5.20;99.90;;;;;;5025588;28;20051;-46
2023/02/04 11:54:18;;;;;;;89.15;38.53;;;5.00;99.90;;;;;;5052940;28;20132;-46
2023/02/04 11:56:47;;;;;;;55.33;26.83;;;5.20;99.90;;;;;;5052036;28;20623;-45
2023/02/04 11:59:13;;;;;;;49.63;26.25;;;5.20;99.90;;;;;;5033770;28;20076;-45
2023/02/04 12:01:40;;;;;;;24.05;13.25;;;5.10;99.90;;;;;;5052593;28;20055;-46
2023/02/04 12:04:20;;;;;;;46.58;22.42;;;5.20;99.90;;;;;;5052858;28;20043;-46
2023/02/04 12:07:02;;;;;;;11.13;7.85;;;5.50;99.90;;;;;;5052437;28;20032;-47
2023/02/04 12:09:29;;;;;;;1.60;1.50;;;5.00;99.90;;;;;;5016656;28;20037;-45
2023/02/04 12:12:02;;;;;;;4.07;2.85;;;5.00;99.90;;;;;;5053638;28;20037;-47
2023/02/04 12:14:36;;;;;;;3.45;2.30;;;5.00;99.90;;;;;;5068979;28;20048;-47
2023/02/04 12:17:19;;;;;;;3.13;2.08;;;5.00;99.90;;;;;;5035161;28;20391;-46
2023/02/04 12:19:45;;;;;;;3.63;2.30;;;5.40;99.90;;;;;;5053518;28;20068;-46
2023/02/04 12:22:12;;;;;;;3.00;1.80;;;5.00;99.90;;;;;;5053400;28;20056;-46
2023/02/04 12:24:37;;;;;;;3.13;1.92;;;5.30;99.90;;;;;;5052627;28;20087;-46
2023/02/04 12:27:03;;;;;;;2.88;2.33;;;5.20;99.90;;;;;;5052392;28;20422;-45
2023/02/04 12:29:29;;;;;;;1.70;1.60;;;5.20;99.90;;;;;;5052757;28;20072;-46
2023/02/04 12:31:55;;;;;;;2.65;2.13;;;4.80;99.90;;;;;;5052313;28;20040;-46
2023/02/04 12:34:20;;;;;;;2.75;1.83;;;4.80;99.90;;;;;;5052361;28;20047;-46
2023/02/04 12:36:46;;;;;;;2.92;1.38;;;4.80;99.90;;;;;;5052287;28;20465;-46
2023/02/04 12:39:12;;;;;;;4.63;2.42;;;;;;;;;;5083049;28;20045;-46
2023/02/04 12:41:38;;;;;;;2.45;1.77;;;;;;;;;;5053662;28;20155;-46
2023/02/04 12:44:04;;;;;;;1.55;1.40;;;;;;;;;;5055916;28;20029;-46
2023/02/04 12:46:30;;;;;;;2.35;1.90;;;;;;;;;;5054250;28;20037;-46
2023/02/04 12:48:57;;;;;;;2.50;2.00;;;;;;;;;;5054378;28;20035;-46
2023/02/04 12:51:23;;;;;;;4.38;2.22;;;;;;;;;;5086215;28;20037;-46
2023/02/04 12:53:48;;;;;;;2.83;2.22;;;4.80;99.90;;;;;;5054093;28;20115;-46
2023/02/04 12:56:15;;;;;;;4.20;2.00;;;4.70;99.90;;;;;;5085753;28;20053;-45
2023/02/04 12:58:40;;;;;;;3.03;1.90;;;4.70;99.90;;;;;;5052393;28;20063;-46
2023/02/04 13:01:06;;;;;;;2.28;1.42;;;4.70;99.90;;;;;;5051336;28;20037;-45
2023/02/04 13:03:32;;;;;;;2.25;1.40;;;4.60;99.90;;;;;;5051488;28;20029;-46
2023/02/04 13:05:58;;;;;;;2.85;1.83;;;4.60;99.90;;;;;;5051694;28;20106;-45
2023/02/04 13:08:24;;;;;;;2.10;1.65;;;4.50;99.90;;;;;;5032904;28;20040;-46